CheckWX is a tool to help pilots better visualize weather data.  It is not intended as a substitute for an official pre-flight weather briefing.

08:16:37 UTC

LFMO TAF
Orange-Caritat (BA 115) Air Base Airport
Orange/Caritat, France
TAF LFMO 140200Z 1403/1503 14008KT CAVOK BECMG 1407/1409 4000 RA TEMPO 1410/1416 BKN007 BKN015 PROB40 TEMPO 1410/1416 VRB15G25KT BKN005 BKN015CB BKN020 BECMG 1419/1421 8000 NSW BECMG 1500/1502 4000 BR

Nov-14@
03:00 UTC

Nov-14 @ 03:00 UTC

Nov-14@
07:00 UTC

Nov-14 @ 07:00 UTC

TAF LFMO 140200Z 1403/1503 14008KT CAVOK

Expired

Wind
  • 140° at 8 KTS
Conditions
No significant weather
Cloud Levels
  • No significant clouds

Nov-14@
07:00 UTC

Nov-14 @ 07:00 UTC

Nov-14@
19:00 UTC

Nov-14 @ 19:00 UTC

BECMG 1407/1409 4000 RA

Becoming

Becoming Conditions expected by Thu, Nov 14, 2019 @ 09:00 UTC

Wind
  • 140° at 8 KTS
Conditions
Rain
Cloud Levels
  • No significant clouds

Nov-14@
10:00 UTC

Nov-14 @ 10:00 UTC

Nov-14@
16:00 UTC

Nov-14 @ 16:00 UTC

TEMPO 1410/1416 BKN007 BKN015

Temporary

Temporary Changes expected for less than half the time period

Cloud Levels
  • Broken at 700' AGL
  • Broken at 1,500' AGL

Nov-14@
10:00 UTC

Nov-14 @ 10:00 UTC

Nov-14@
16:00 UTC

Nov-14 @ 16:00 UTC

PROB40 TEMPO 1410/1416 VRB15G25KT BKN005 BKN015CB BKN020

Temporary - 40% Likelihood

Temporary - 40% Likelihood during this time.

Wind
  • Variable at 15 KTS
  • {Gusting to 25 KTS
Cloud Levels
  • Broken at 500' AGL
  • Broken at 1,500' AGL
  • Broken at 2,000' AGL

Nov-14@
19:00 UTC

Nov-14 @ 19:00 UTC

Nov-15@
00:00 UTC

Nov-15 @ 00:00 UTC

BECMG 1419/1421 8000 NSW

Becoming

Becoming Conditions expected by Thu, Nov 14, 2019 @ 21:00 UTC

Wind
  • 140° at 8 KTS
Conditions
No significant weather
Cloud Levels
  • No significant clouds

Nov-15@
00:00 UTC

Nov-15 @ 00:00 UTC

Nov-15@
03:00 UTC

Nov-15 @ 03:00 UTC

BECMG 1500/1502 4000 BR

Becoming

Becoming Conditions expected by Fri, Nov 15, 2019 @ 02:00 UTC

Wind
  • 140° at 8 KTS
Conditions
Mist
Cloud Levels
  • No significant clouds